Time;durP1;ratioP1;P1;durP2;ratioP2;P2;SDS_P1;SDS_P2;PMS_P1;PMS_P2;Temp;Humidity;BMP_temperature;BMP_pressure;BME280_temperature;BME280_humidity;BME280_pressure;Samples;Min_cycle;Max_cycle;Signal;HPM_P1;HPM_P2
2022/07/31 00:01:50;;;;;;;9.93;3.00;;;;;;;;;;5021889;28;20080;-65
2022/07/31 00:04:18;;;;;;;5.60;2.92;;;;;;;;;;5025868;28;20136;-64
2022/07/31 00:06:46;;;;;;;5.35;2.70;;;;;;;;;;5021975;28;20053;-64
2022/07/31 00:09:13;;;;;;;6.68;2.80;;;;;;;;;;5003176;28;20061;-65
2022/07/31 00:11:42;;;;;;;6.53;2.72;;;;;;;;;;5018849;28;20108;-65
2022/07/31 00:14:09;;;;;;;5.47;2.58;;;;;;;;;;5021000;28;20076;-65
2022/07/31 00:16:36;;;;;;;7.70;2.80;;;;;;;;;;5021672;28;20045;-65
2022/07/31 00:19:04;;;;;;;6.97;2.50;;;;;;;;;;5015685;28;20053;-65
2022/07/31 00:21:32;;;;;;;6.53;2.65;;;;;;;;;;5011473;28;20103;-65
2022/07/31 00:24:00;;;;;;;6.72;2.70;;;;;;;;;;5025175;28;20054;-64
2022/07/31 00:26:27;;;;;;;5.00;2.42;;;;;;;;;;5019412;28;20064;-65
2022/07/31 00:28:54;;;;;;;5.55;2.70;;;;;;;;;;5022758;28;20057;-64
2022/07/31 00:31:23;;;;;;;5.28;2.47;;;;;;;;;;5018910;28;20049;-65
2022/07/31 00:33:50;;;;;;;5.10;2.75;;;;;;;;;;5021030;28;20485;-65
2022/07/31 00:36:17;;;;;;;5.30;2.55;;;;;;;;;;5018278;28;20488;-65
2022/07/31 00:38:46;;;;;;;8.57;2.90;;;;;;;;;;5022254;28;20056;-65
2022/07/31 00:41:14;;;;;;;4.57;2.58;;;;;;;;;;5020398;28;20156;-64
2022/07/31 00:43:41;;;;;;;9.45;3.05;;;;;;;;;;5022661;28;20049;-64
2022/07/31 00:46:08;;;;;;;4.90;2.70;;;;;;;;;;5021200;28;20053;-65
2022/07/31 00:48:35;;;;;;;8.40;2.85;;;;;;;;;;5021863;28;20056;-64
2022/07/31 00:51:03;;;;;;;5.32;3.08;;;;;;;;;;5019254;28;20053;-64
2022/07/31 00:53:30;;;;;;;6.05;2.85;;;;;;;;;;5021878;28;20057;-65
2022/07/31 00:55:58;;;;;;;6.05;2.78;;;;;;;;;;5017846;28;20497;-64
2022/07/31 00:58:26;;;;;;;4.22;2.80;;;;;;;;;;5021108;28;20407;-65
2022/07/31 01:00:53;;;;;;;9.13;3.25;;;;;;;;;;5022478;28;20045;-65
2022/07/31 01:03:20;;;;;;;8.68;3.00;;;;;;;;;;5020338;28;20048;-64
2022/07/31 01:05:47;;;;;;;9.25;3.55;;;;;;;;;;5024192;28;20107;-64
2022/07/31 01:08:14;;;;;;;5.03;2.78;;;;;;;;;;5019265;28;20056;-64
2022/07/31 01:10:45;;;;;;;6.88;3.33;;;;;;;;;;5018693;28;20064;-64
2022/07/31 01:13:17;;;;;;;10.43;3.40;;;;;;;;;;5006229;28;20056;-65
2022/07/31 01:15:44;;;;;;;8.27;2.90;;;;;;;;;;5004992;28;20064;-64
2022/07/31 01:18:12;;;;;;;5.57;2.80;;;;;;;;;;5021415;28;20057;-64
2022/07/31 01:20:41;;;;;;;7.28;3.10;;;;;;;;;;5001153;28;20057;-64
2022/07/31 01:23:17;;;;;;;5.72;3.60;;;;;;;;;;5022314;28;20045;-65
2022/07/31 01:25:47;;;;;;;7.80;3.03;;;;;;;;;;5022091;28;20057;-65
2022/07/31 01:28:24;;;;;;;8.30;3.33;;;;;;;;;;5023382;28;20115;-65
2022/07/31 01:30:57;;;;;;;6.35;3.53;;;;;;;;;;5021611;28;20064;-65
2022/07/31 01:33:28;;;;;;;7.65;3.55;;;;;;;;;;5000510;28;20053;-64
2022/07/31 01:35:59;;;;;;;6.80;3.17;;;;;;;;;;5000531;28;20052;-65
2022/07/31 01:38:30;;;;;;;6.15;3.10;;;;;;;;;;5019065;28;20049;-65
2022/07/31 01:40:59;;;;;;;6.05;3.30;;;;;;;;;;4999751;28;20054;-64
2022/07/31 01:43:29;;;;;;;7.68;3.00;;;;;;;;;;5004086;28;20080;-64
2022/07/31 01:45:59;;;;;;;11.90;3.40;;;;;;;;;;5022717;28;20049;-64
2022/07/31 01:48:27;;;;;;;10.05;3.33;;;;;;;;;;5019419;28;20564;-64
2022/07/31 01:50:56;;;;;;;6.40;2.92;;;;;;;;;;5015406;28;20053;-65
2022/07/31 01:53:25;;;;;;;7.13;3.17;;;;;;;;;;5020072;28;20709;-65
2022/07/31 01:55:53;;;;;;;5.78;3.17;;;;;;;;;;5019381;28;20129;-64
2022/07/31 01:58:21;;;;;;;5.10;2.80;;;;;;;;;;5014749;28;20856;-64
2022/07/31 02:00:49;;;;;;;9.15;3.33;;;;;;;;;;5022147;28;20046;-64
2022/07/31 02:03:18;;;;;;;5.80;2.95;;;;;;;;;;5018071;28;20053;-65
2022/07/31 02:05:46;;;;;;;5.35;2.60;;;;;;;;;;5004744;28;20435;-64
2022/07/31 02:08:15;;;;;;;5.78;2.63;;;;;;;;;;5022709;28;20393;-64
2022/07/31 02:10:43;;;;;;;8.75;2.95;;;;;;;;;;5017678;28;20092;-65
2022/07/31 02:13:11;;;;;;;8.02;3.15;;;;;;;;;;5019790;28;20072;-65
2022/07/31 02:15:38;;;;;;;5.78;2.85;;;;;;;;;;5016351;28;20104;-65
2022/07/31 02:18:06;;;;;;;9.35;3.17;;;;;;;;;;5016008;28;20052;-64
2022/07/31 02:20:34;;;;;;;5.90;2.63;;;;;;;;;;5001828;28;20057;-65
2022/07/31 02:23:02;;;;;;;6.88;3.20;;;;;;;;;;5022644;28;20072;-64
2022/07/31 02:25:30;;;;;;;4.95;3.10;;;;;;;;;;5005648;28;20069;-65
2022/07/31 02:27:59;;;;;;;8.25;3.00;;;;;;;;;;5020240;28;20041;-65
2022/07/31 02:30:27;;;;;;;6.30;3.05;;;;;;;;;;5005794;28;20053;-64
2022/07/31 02:32:54;;;;;;;5.03;2.90;;;;;;;;;;5022673;28;20107;-65
2022/07/31 02:35:22;;;;;;;4.78;2.70;;;;;;;;;;5025465;28;20054;-64
2022/07/31 02:37:51;;;;;;;7.70;2.90;;;;;;;;;;5022253;28;20046;-64
2022/07/31 02:40:20;;;;;;;7.90;2.80;;;;;;;;;;5026254;28;20153;-65
2022/07/31 02:42:47;;;;;;;7.57;3.30;;;;;;;;;;5019981;28;20574;-64
2022/07/31 02:45:16;;;;;;;5.07;3.30;;;;;;;;;;5027390;28;20060;-65
2022/07/31 02:47:43;;;;;;;5.78;3.58;;;;;;;;;;5026998;28;20092;-65
2022/07/31 02:50:11;;;;;;;6.50;3.08;;;;;;;;;;5023048;28;20519;-65
2022/07/31 02:52:38;;;;;;;7.78;3.10;;;;;;;;;;5020524;28;20116;-64
2022/07/31 02:55:08;;;;;;;8.82;3.25;;;;;;;;;;5025798;28;20451;-64
2022/07/31 02:57:35;;;;;;;8.90;3.58;;;;;;;;;;5021420;28;20049;-64
2022/07/31 03:00:02;;;;;;;6.95;3.58;;;;;;;;;;5027087;28;20056;-64
2022/07/31 03:02:30;;;;;;;6.88;3.33;;;;;;;;;;5026342;28;20060;-66
2022/07/31 03:04:57;;;;;;;7.28;3.30;;;;;;;;;;5027543;28;20081;-64
2022/07/31 03:07:24;;;;;;;6.35;3.80;;;;;;;;;;5026584;28;20045;-64
2022/07/31 03:09:51;;;;;;;6.70;3.58;;;;;;;;;;5020507;28;20599;-65
2022/07/31 03:12:20;;;;;;;8.60;3.67;;;;;;;;;;5022747;28;20610;-64
2022/07/31 03:14:47;;;;;;;7.88;3.67;;;;;;;;;;5006683;28;20076;-64
2022/07/31 03:17:15;;;;;;;7.03;3.47;;;;;;;;;;5024070;28;20046;-65
2022/07/31 03:19:42;;;;;;;6.18;3.55;;;;;;;;;;5024670;28;20050;-65
2022/07/31 03:22:09;;;;;;;6.13;3.58;;;;;;;;;;5024319;28;20108;-65
2022/07/31 03:24:37;;;;;;;8.00;3.72;;;;;;;;;;5025408;28;20045;-64
2022/07/31 03:27:04;;;;;;;7.15;3.90;;;;;;;;;;5025213;28;20488;-64
2022/07/31 03:29:39;;;;;;;7.53;3.92;;;;;;;;;;5015956;28;20104;-64
2022/07/31 03:32:06;;;;;;;6.57;4.00;;;;;;;;;;5026785;28;20050;-65
2022/07/31 03:34:34;;;;;;;9.50;4.20;;;;;;;;;;5021016;28;20060;-64
2022/07/31 03:37:01;;;;;;;9.52;3.83;;;;;;;;;;5022391;28;20740;-64
2022/07/31 03:39:29;;;;;;;5.05;3.78;;;;;;;;;;5021583;28;20057;-65
2022/07/31 03:41:57;;;;;;;8.60;4.20;;;;;;;;;;5021641;28;20417;-64
2022/07/31 03:44:25;;;;;;;13.30;4.28;;;;;;;;;;5017179;28;20057;-64
2022/07/31 03:46:54;;;;;;;8.13;4.18;;;;;;;;;;5023246;28;20064;-64
2022/07/31 03:49:22;;;;;;;10.15;4.03;;;;;;;;;;5020970;28;20133;-64
2022/07/31 03:51:49;;;;;;;9.05;4.00;;;;;;;;;;5018935;28;20095;-65
2022/07/31 03:54:17;;;;;;;11.55;4.10;;;;;;;;;;5022107;28;20049;-64
2022/07/31 03:56:45;;;;;;;6.47;4.07;;;;;;;;;;5005527;28;20653;-64
2022/07/31 03:59:15;;;;;;;9.88;4.15;;;;;;;;;;5022206;28;20888;-65
2022/07/31 04:01:42;;;;;;;5.55;3.78;;;;;;;;;;5021382;28;20057;-64
2022/07/31 04:04:12;;;;;;;8.23;3.75;;;;;;;;;;5021137;28;20049;-64
2022/07/31 04:06:40;;;;;;;7.45;3.88;;;;;;;;;;5021279;28;20049;-64
2022/07/31 04:09:07;;;;;;;7.82;3.85;;;;;;;;;;5022508;28;20810;-64
2022/07/31 04:11:34;;;;;;;8.05;3.90;;;;;;;;;;5018611;28;20052;-65
2022/07/31 04:14:01;;;;;;;6.35;3.50;;;;;;;;;;5018908;28;21335;-64
2022/07/31 04:16:29;;;;;;;6.90;4.15;;;;;;;;;;5007737;28;20056;-64
2022/07/31 04:18:56;;;;;;;6.53;4.05;;;;;;;;;;5014821;28;20054;-65
2022/07/31 04:21:25;;;;;;;7.03;3.78;;;;;;;;;;5022021;28;20052;-64
2022/07/31 04:23:52;;;;;;;5.63;3.75;;;;;;;;;;5022144;28;20060;-64
2022/07/31 04:26:19;;;;;;;8.68;3.95;;;;;;;;;;5018612;28;20111;-64
2022/07/31 04:28:46;;;;;;;7.10;4.25;;;;;;;;;;5018306;28;20493;-65
2022/07/31 04:31:13;;;;;;;7.85;4.03;;;;;;;;;;5003367;28;20062;-64
2022/07/31 04:33:42;;;;;;;10.57;4.10;;;;;;;;;;5019589;28;20108;-64
2022/07/31 04:36:09;;;;;;;7.45;3.80;;;;;;;;;;5022414;28;20049;-64
2022/07/31 04:38:38;;;;;;;6.53;3.97;;;;;;;;;;5021487;28;20410;-64
2022/07/31 04:41:05;;;;;;;7.70;4.15;;;;;;;;;;5019607;28;20056;-64
2022/07/31 04:43:32;;;;;;;8.60;4.28;;;;;;;;;;5017698;28;20053;-65
2022/07/31 04:46:00;;;;;;;8.52;4.40;;;;;;;;;;5005367;28;20068;-65
2022/07/31 04:48:27;;;;;;;5.63;4.07;;;;;;;;;;5019624;28;20622;-64
2022/07/31 04:50:54;;;;;;;14.73;4.50;;;;;;;;;;5020339;28;20104;-64
2022/07/31 04:53:21;;;;;;;6.93;4.10;;;;;;;;;;5022490;28;20057;-65
2022/07/31 04:58:33;;;;;;;8.27;4.40;;;;;;;;;;5015288;28;20056;-65
2022/07/31 05:01:01;;;;;;;6.68;3.75;;;;;;;;;;5012440;28;20115;-65
2022/07/31 05:03:28;;;;;;;6.55;4.18;;;;;;;;;;5023529;28;20111;-64
2022/07/31 05:05:55;;;;;;;7.45;4.78;;;;;;;;;;5021285;28;20060;-65
2022/07/31 05:08:22;;;;;;;8.98;4.68;;;;;;;;;;5022647;28;20047;-65
2022/07/31 05:13:36;;;;;;;9.57;5.05;;;;;;;;;;5014388;28;20057;-65
2022/07/31 05:16:03;;;;;;;7.45;4.30;;;;;;;;;;5024249;28;20114;-64
2022/07/31 05:18:30;;;;;;;10.07;5.63;;;;;;;;;;5017229;28;20046;-65
2022/07/31 05:20:57;;;;;;;7.60;4.65;;;;;;;;;;5012778;28;20108;-65
2022/07/31 05:23:25;;;;;;;7.55;4.68;;;;;;;;;;5014299;28;20042;-65
2022/07/31 05:25:54;;;;;;;8.68;4.72;;;;;;;;;;5019245;28;20058;-65
2022/07/31 05:28:21;;;;;;;13.25;5.22;;;;;;;;;;5022598;28;20056;-64
2022/07/31 05:30:48;;;;;;;10.00;5.20;;;;;;;;;;5021670;28;20247;-65
2022/07/31 05:33:15;;;;;;;9.55;5.53;;;;;;;;;;5002968;28;20049;-65
2022/07/31 05:35:42;;;;;;;11.43;5.18;;;;;;;;;;5018955;28;20050;-64
2022/07/31 05:38:10;;;;;;;8.15;5.10;;;;;;;;;;5007139;28;20045;-64
2022/07/31 05:40:37;;;;;;;9.68;4.95;;;;;;;;;;5018152;28;20408;-65
2022/07/31 05:43:05;;;;;;;13.25;5.10;;;;;;;;;;5016285;28;20049;-65
2022/07/31 05:45:33;;;;;;;8.85;5.32;;;;;;;;;;5019964;28;20046;-65
2022/07/31 05:48:00;;;;;;;9.77;5.13;;;;;;;;;;5013432;28;20054;-65
2022/07/31 05:50:27;;;;;;;11.23;5.63;;;;;;;;;;5015961;28;20752;-64
2022/07/31 05:52:54;;;;;;;9.00;4.85;;;;;;;;;;5015049;28;20065;-65
2022/07/31 05:55:22;;;;;;;8.93;5.30;;;;;;;;;;5023979;28;20051;-64
2022/07/31 05:57:49;;;;;;;9.38;5.28;;;;;;;;;;5022618;28;20142;-65
2022/07/31 06:00:19;;;;;;;9.98;4.75;;;;;;;;;;5023944;28;20052;-65
2022/07/31 06:02:47;;;;;;;10.65;5.22;;;;;;;;;;5006395;28;20491;-64
2022/07/31 06:05:14;;;;;;;9.50;5.18;;;;;;;;;;5004472;28;20050;-64
2022/07/31 06:07:43;;;;;;;8.88;5.60;;;;;;;;;;5006413;28;20057;-65
2022/07/31 06:10:10;;;;;;;7.38;5.30;;;;;;;;;;5004651;28;20152;-65
2022/07/31 06:12:38;;;;;;;10.65;5.93;;;;;;;;;;5019568;28;20602;-65
2022/07/31 06:15:05;;;;;;;10.50;5.43;;;;;;;;;;5011040;28;20489;-64
2022/07/31 06:17:34;;;;;;;8.18;5.90;;;;;;;;;;5024691;28;20053;-64
2022/07/31 06:20:01;;;;;;;11.10;5.75;;;;;;;;;;5021568;28;20053;-65
2022/07/31 06:22:28;;;;;;;10.75;6.20;;;;;;;;;;5009338;28;20057;-65
2022/07/31 06:24:55;;;;;;;9.85;5.97;;;;;;;;;;5023985;28;20050;-65
2022/07/31 06:27:23;;;;;;;11.70;6.30;;;;;;;;;;5005018;28;20064;-65
2022/07/31 06:29:50;;;;;;;16.25;6.28;;;;;;;;;;5024057;28;20527;-64
2022/07/31 06:32:17;;;;;;;10.73;6.25;;;;;;;;;;5025935;28;20485;-65
2022/07/31 06:34:46;;;;;;;10.73;6.35;;;;;;;;;;5020472;28;20057;-65
2022/07/31 06:37:13;;;;;;;10.02;6.30;;;;;;;;;;5021749;28;20053;-65
2022/07/31 06:39:40;;;;;;;10.88;6.22;;;;;;;;;;5005109;28;20056;-64
2022/07/31 06:42:08;;;;;;;10.13;6.47;;;;;;;;;;5009936;28;20069;-65
2022/07/31 06:44:35;;;;;;;11.80;6.80;;;;;;;;;;5022101;28;20069;-65
2022/07/31 06:47:02;;;;;;;11.15;6.90;;;;;;;;;;5017330;28;20065;-65
2022/07/31 06:49:29;;;;;;;8.75;6.53;;;;;;;;;;5022651;28;20148;-65
2022/07/31 06:51:58;;;;;;;10.70;6.78;;;;;;;;;;5008662;28;20060;-65
2022/07/31 06:54:25;;;;;;;10.07;7.20;;;;;;;;;;5021445;28;20056;-65
2022/07/31 06:56:52;;;;;;;9.75;7.10;;;;;;;;;;5026075;28;20059;-65
2022/07/31 06:59:20;;;;;;;10.88;6.70;;;;;;;;;;5024301;28;20061;-65
2022/07/31 07:01:47;;;;;;;14.35;7.47;;;;;;;;;;5022910;28;20049;-64
2022/07/31 07:04:14;;;;;;;14.80;7.40;;;;;;;;;;5017197;28;20696;-65
2022/07/31 07:06:41;;;;;;;11.98;7.50;;;;;;;;;;5022838;28;20100;-65
2022/07/31 07:09:10;;;;;;;13.15;7.90;;;;;;;;;;5021600;28;20092;-64
2022/07/31 07:11:38;;;;;;;12.43;7.63;;;;;;;;;;5024838;28;20054;-65
2022/07/31 07:14:05;;;;;;;13.93;7.65;;;;;;;;;;5003338;28;20416;-65
2022/07/31 07:16:32;;;;;;;19.90;8.02;;;;;;;;;;5007689;28;20057;-65
2022/07/31 07:18:59;;;;;;;14.30;7.68;;;;;;;;;;5023350;28;20046;-65
2022/07/31 07:21:26;;;;;;;12.93;7.85;;;;;;;;;;5005197;28;20049;-65
2022/07/31 07:23:53;;;;;;;13.50;8.60;;;;;;;;;;5024044;28;20057;-65
2022/07/31 07:29:53;;;;;;;12.32;9.25;;;;;;;;;;5023053;28;20079;-65
2022/07/31 07:32:21;;;;;;;13.80;9.50;;;;;;;;;;5022993;28;20045;-65
2022/07/31 07:34:48;;;;;;;16.30;10.73;;;;;;;;;;5024721;28;20064;-65
2022/07/31 07:37:15;;;;;;;16.92;10.05;;;;;;;;;;5002155;28;20057;-64
2022/07/31 07:39:43;;;;;;;21.83;10.63;;;;;;;;;;5017621;28;20050;-65
2022/07/31 07:42:11;;;;;;;20.52;11.32;;;;;;;;;;5002690;28;20093;-65
2022/07/31 07:44:38;;;;;;;20.20;12.38;;;;;;;;;;5020041;28;20065;-64
2022/07/31 07:47:06;;;;;;;22.20;11.07;;;;;;;;;;5023285;28;20058;-65
2022/07/31 07:49:34;;;;;;;19.20;10.93;;;;;;;;;;5020995;28;20046;-65
2022/07/31 07:52:02;;;;;;;24.80;11.15;;;;;;;;;;5020677;28;20057;-64
2022/07/31 07:54:29;;;;;;;21.88;11.82;;;;;;;;;;5008213;28;20053;-64
2022/07/31 07:56:56;;;;;;;19.58;10.93;;;;;;;;;;5023832;28;20152;-65
2022/07/31 07:59:24;;;;;;;21.05;11.70;;;;;;;;;;5022773;28;20038;-64
2022/07/31 08:01:51;;;;;;;21.85;12.45;;;;;;;;;;5019716;28;20046;-64
2022/07/31 08:04:19;;;;;;;24.33;13.07;;;;;;;;;;5018185;28;20839;-64
2022/07/31 08:06:46;;;;;;;23.25;12.13;;;;;;;;;;5024350;28;20052;-64
2022/07/31 08:09:14;;;;;;;25.65;13.82;;;;;;;;;;5016305;28;20103;-63
2022/07/31 08:11:41;;;;;;;31.33;14.55;;;;;;;;;;5006892;28;20053;-63
2022/07/31 08:14:09;;;;;;;25.60;13.82;;;;;;;;;;5022937;28;20061;-62
2022/07/31 08:16:36;;;;;;;33.00;15.23;;;;;;;;;;5021242;28;20528;-63
2022/07/31 08:19:03;;;;;;;30.50;16.35;;;;;;;;;;5018685;28;20763;-62
2022/07/31 08:21:33;;;;;;;32.75;17.95;;;;;;;;;;5016106;28;20054;-63
2022/07/31 08:24:01;;;;;;;32.55;16.38;;;;;;;;;;5022418;28;20049;-63
2022/07/31 08:27:22;;;;;;;40.25;18.25;;;;;;;;;;5004655;28;20068;-63
2022/07/31 08:29:16;;;;;;;34.63;17.90;;;;;;;;;;5025686;28;20067;-62
2022/07/31 08:31:43;;;;;;;51.13;23.40;;;;;;;;;;5023478;28;20583;-62
2022/07/31 08:34:11;;;;;;;32.17;19.10;;;;;;;;;;5020456;28;20123;-62
2022/07/31 08:36:40;;;;;;;39.08;19.27;;;;;;;;;;5018134;28;20050;-62
2022/07/31 08:39:07;;;;;;;37.47;19.75;;;;;;;;;;5024365;28;20045;-62
2022/07/31 08:41:37;;;;;;;53.63;25.20;;;;;;;;;;5022598;28;20713;-63
2022/07/31 08:44:05;;;;;;;45.90;22.17;;;;;;;;;;5019209;28;20670;-63
2022/07/31 08:46:33;;;;;;;54.00;23.40;;;;;;;;;;5004506;28;20528;-63
2022/07/31 08:49:02;;;;;;;114.85;34.25;;;;;;;;;;5020526;28;20041;-62
2022/07/31 08:51:31;;;;;;;58.00;27.33;;;;;;;;;;5019688;28;20050;-63
2022/07/31 08:54:01;;;;;;;56.33;25.38;;;;;;;;;;5020256;28;20056;-63
2022/07/31 08:56:28;;;;;;;178.07;43.83;;;;;;;;;;5015025;28;20084;-63
2022/07/31 08:58:56;;;;;;;50.17;23.02;;;;;;;;;;5016206;28;20057;-63
2022/07/31 09:01:24;;;;;;;38.35;19.77;;;;;;;;;;5018931;28;20057;-63
2022/07/31 09:03:51;;;;;;;29.92;19.17;;;;;;;;;;5023538;28;20099;-63
2022/07/31 09:06:18;;;;;;;36.25;19.48;;;;;;;;;;5006170;28;20065;-63
2022/07/31 09:08:45;;;;;;;44.70;19.95;;;;;;;;;;5023115;28;20060;-63
2022/07/31 09:11:15;;;;;;;36.33;20.80;;;;;;;;;;5019897;28;20060;-63
2022/07/31 09:13:52;;;;;;;52.88;24.80;;;;;;;;;;5024153;28;20093;-63
2022/07/31 09:16:19;;;;;;;72.18;28.17;;;;;;;;;;5024815;28;20053;-63
2022/07/31 09:18:55;;;;;;;37.83;21.10;;;;;;;;;;5005902;28;20103;-63
2022/07/31 09:21:22;;;;;;;55.58;26.10;;;;;;;;;;5005183;28;20060;-63
2022/07/31 09:23:49;;;;;;;88.15;32.25;;;;;;;;;;5020673;28;20079;-63
2022/07/31 09:26:18;;;;;;;33.35;20.13;;;;;;;;;;5020106;28;20049;-63
2022/07/31 09:28:46;;;;;;;40.38;22.40;;;;;;;;;;5016985;28;20088;-63
2022/07/31 09:31:13;;;;;;;36.35;21.83;;;;;;;;;;5020011;28;20053;-63
2022/07/31 09:33:43;;;;;;;42.33;22.83;;;;;;;;;;5005293;28;20128;-63
2022/07/31 09:36:10;;;;;;;31.63;18.65;;;;;;;;;;5017873;28;20096;-62
2022/07/31 09:38:38;;;;;;;45.08;20.80;;;;;;;;;;5019705;28;20053;-62
2022/07/31 09:41:10;;;;;;;32.25;19.42;;;;;;;;;;5015975;28;20059;-63
2022/07/31 09:43:39;;;;;;;38.47;18.90;;;;;;;;;;5021508;28;20479;-63
2022/07/31 09:46:07;;;;;;;35.78;18.90;;;;;;;;;;5025257;28;20456;-63
2022/07/31 09:48:34;;;;;;;22.15;14.32;;;;;;;;;;5022531;28;20045;-62
2022/07/31 09:51:02;;;;;;;35.28;17.65;;;;;;;;;;5022148;28;20675;-62
2022/07/31 09:53:39;;;;;;;24.50;14.93;;;;;;;;;;5028350;28;20063;-63
2022/07/31 09:56:11;;;;;;;23.88;15.02;;;;;;;;;;5021079;28;20111;-63
2022/07/31 09:58:40;;;;;;;18.65;12.85;;;;;;;;;;5024918;28;20057;-63
2022/07/31 10:01:09;;;;;;;21.30;12.48;;;;;;;;;;5021699;28;20057;-63
2022/07/31 10:03:37;;;;;;;57.25;21.05;;;;;;;;;;5021661;28;20041;-63
2022/07/31 10:06:05;;;;;;;19.83;12.15;;;;;;;;;;5027380;28;20144;-63
2022/07/31 10:08:34;;;;;;;24.27;14.63;;;;;;;;;;5027629;28;20650;-63
2022/07/31 10:11:01;;;;;;;31.05;16.10;;;;;;;;;;5021347;28;20054;-62
2022/07/31 10:13:30;;;;;;;19.20;13.00;;;;;;;;;;5024201;28;20132;-62
2022/07/31 10:16:00;;;;;;;23.92;14.75;;;;;;;;;;5020473;28;20049;-62
2022/07/31 10:18:29;;;;;;;80.25;24.00;;;;;;;;;;5017983;28;20053;-62
2022/07/31 10:20:56;;;;;;;19.83;11.23;;;;;;;;;;5025454;28;20058;-62
2022/07/31 10:23:26;;;;;;;40.20;14.93;;;;;;;;;;5025000;28;20107;-62
2022/07/31 10:25:55;;;;;;;23.83;11.63;;;;;;;;;;5022542;28;20050;-61
2022/07/31 10:28:22;;;;;;;18.00;11.75;;;;;;;;;;5004554;28;20135;-61
2022/07/31 10:30:50;;;;;;;85.05;21.70;;;;;;;;;;5018992;28;20046;-62
2022/07/31 10:33:18;;;;;;;23.05;13.43;;;;;;;;;;5006498;28;20057;-62
2022/07/31 10:35:49;;;;;;;65.65;19.33;;;;;;;;;;5025049;28;20488;-61
2022/07/31 10:38:19;;;;;;;28.92;15.18;;;;;;;;;;5022936;28;20129;-61
2022/07/31 10:40:50;;;;;;;33.40;18.25;;;;;;;;;;5025497;28;20481;-62
2022/07/31 10:43:19;;;;;;;40.60;18.65;;;;;;;;;;5025900;28;20057;-61
2022/07/31 10:45:47;;;;;;;60.78;25.67;;;;;;;;;;5026728;28;20433;-62
2022/07/31 10:48:15;;;;;;;59.58;24.05;;;;;;;;;;5021795;28;20055;-62
2022/07/31 10:50:44;;;;;;;106.53;32.50;;;;;;;;;;5023646;28;20072;-61
2022/07/31 10:53:12;;;;;;;57.55;25.92;;;;;;;;;;5019301;28;20064;-61
2022/07/31 10:55:39;;;;;;;42.90;22.48;;;;;;;;;;5023489;28;20045;-62
2022/07/31 10:58:08;;;;;;;100.35;33.97;;;;;;;;;;5024537;28;20050;-62
2022/07/31 11:00:35;;;;;;;103.70;34.55;;;;;;;;;;5025987;28;20085;-62
2022/07/31 11:03:12;;;;;;;100.03;33.05;;;;;;;;;;5024997;28;20160;-61
2022/07/31 11:05:40;;;;;;;39.95;22.77;;;;;;;;;;5022159;28;20060;-62
2022/07/31 11:08:08;;;;;;;42.38;20.45;;;;;;;;;;5019365;28;20073;-62
2022/07/31 11:10:36;;;;;;;42.95;21.90;;;;;;;;;;5021566;28;20045;-63
2022/07/31 11:13:04;;;;;;;55.25;23.30;;;;;;;;;;5020988;28;20535;-63
2022/07/31 11:15:31;;;;;;;52.42;21.58;;;;;;;;;;5026953;28;20076;-62
2022/07/31 11:17:58;;;;;;;71.45;24.02;;;;;;;;;;5020740;28;20042;-62
2022/07/31 11:20:27;;;;;;;28.98;15.20;;;;;;;;;;5014904;28;20053;-62
2022/07/31 11:22:55;;;;;;;13.60;7.00;;;;;;;;;;5019926;28;20049;-63
2022/07/31 11:25:24;;;;;;;12.90;6.18;;;;;;;;;;5022536;28;20068;-63
2022/07/31 11:27:51;;;;;;;4.50;3.00;;;;;;;;;;5021088;28;20136;-63
2022/07/31 11:30:18;;;;;;;3.78;3.05;;;;;;;;;;5021765;28;20115;-63
2022/07/31 11:32:49;;;;;;;6.85;4.18;;;;;;;;;;5026483;28;20060;-64
2022/07/31 11:35:26;;;;;;;7.25;2.60;;;;;;;;;;5022265;28;20046;-63
2022/07/31 11:37:54;;;;;;;6.72;2.95;;;;;;;;;;5022040;28;20053;-64
2022/07/31 11:40:21;;;;;;;11.95;3.40;;;;;;;;;;5015717;28;20540;-64
2022/07/31 11:42:50;;;;;;;6.10;3.40;;;;;;;;;;5016285;28;20119;-64
2022/07/31 11:45:18;;;;;;;4.22;2.78;;;;;;;;;;5019768;28;20056;-65
2022/07/31 11:47:46;;;;;;;3.70;2.70;;;;;;;;;;5022682;28;20049;-65
2022/07/31 11:50:14;;;;;;;6.53;3.30;;;;;;;;;;5020002;28;20381;-64
2022/07/31 11:52:43;;;;;;;7.43;4.28;;;;;;;;;;5020839;28;20124;-64
2022/07/31 11:55:11;;;;;;;12.07;5.45;;;;;;;;;;5019870;28;20107;-65
2022/07/31 11:57:38;;;;;;;7.70;4.50;;;;;;;;;;5020150;28;20046;-65
2022/07/31 12:00:12;;;;;;;6.40;4.18;;;;;;;;;;5018111;28;20072;-65
2022/07/31 12:02:42;;;;;;;13.50;5.75;;;;;;;;;;5021869;28;20053;-65
2022/07/31 12:05:12;;;;;;;7.57;4.82;;;;;;;;;;5025401;28;20053;-64
2022/07/31 12:07:40;;;;;;;6.57;4.30;;;;;;;;;;5014902;28;20045;-64
2022/07/31 12:10:08;;;;;;;9.93;6.05;;;;;;;;;;5007545;28;20057;-65
2022/07/31 12:12:36;;;;;;;9.88;6.85;;;;;;;;;;5018150;28;20049;-64
2022/07/31 12:15:14;;;;;;;7.75;4.95;;;;;;;;;;5022129;28;20733;-64
2022/07/31 12:17:42;;;;;;;4.43;3.55;;;;;;;;;;5023636;28;20305;-64
2022/07/31 12:20:09;;;;;;;6.68;4.05;;;;;;;;;;5019057;28;20492;-64
2022/07/31 12:22:36;;;;;;;8.35;5.20;;;;;;;;;;5019367;28;20699;-64
2022/07/31 12:25:08;;;;;;;7.22;4.82;;;;;;;;;;5020159;28;20523;-64
2022/07/31 12:27:35;;;;;;;5.65;4.50;;;;;;;;;;5015459;28;20103;-65
2022/07/31 12:30:14;;;;;;;5.90;4.45;;;;;;;;;;5022817;28;20136;-64
2022/07/31 12:32:41;;;;;;;6.47;4.15;;;;;;;;;;5007381;28;20045;-64
2022/07/31 12:35:08;;;;;;;8.80;4.55;;;;;;;;;;5018356;28;20382;-64
2022/07/31 12:37:46;;;;;;;10.25;5.25;;;;;;;;;;5019168;28;20471;-65
2022/07/31 12:40:23;;;;;;;5.22;3.70;;;;;;;;;;5020043;28;20083;-64
2022/07/31 12:42:51;;;;;;;7.22;4.45;;;;;;;;;;5019739;28;20054;-64
2022/07/31 12:45:28;;;;;;;8.80;5.18;;;;;;;;;;5021773;28;20049;-65
2022/07/31 12:47:56;;;;;;;8.45;4.57;;;;;;;;;;5021922;28;20057;-65
2022/07/31 12:50:23;;;;;;;5.22;3.80;;;;;;;;;;5019243;28;20374;-64
2022/07/31 12:52:51;;;;;;;8.68;4.30;;;;;;;;;;5019457;28;20053;-65
2022/07/31 12:55:18;;;;;;;9.95;5.00;;;;;;;;;;5018356;28;20045;-64
2022/07/31 12:57:45;;;;;;;6.68;4.68;;;;;;;;;;5013174;28;20108;-64
2022/07/31 13:00:13;;;;;;;9.77;5.68;;;;;;;;;;5021386;28;20053;-64
2022/07/31 13:02:42;;;;;;;13.27;7.07;;;;;;;;;;5021389;28;20053;-65
2022/07/31 13:05:09;;;;;;;11.07;6.72;;;;;;;;;;5022994;28;20057;-64
2022/07/31 13:07:37;;;;;;;13.20;7.15;;;;;;;;;;5018507;28;20129;-64
2022/07/31 13:10:04;;;;;;;14.77;7.65;;;;;;;;;;5018660;28;20060;-64
2022/07/31 13:12:31;;;;;;;19.40;9.13;;;;;;;;;;5021715;28;20131;-65
2022/07/31 13:15:00;;;;;;;13.88;8.75;;;;;;;;;;5005474;28;20052;-64
2022/07/31 13:17:27;;;;;;;21.95;10.50;;;;;;;;;;5018926;28;20045;-63
2022/07/31 13:19:56;;;;;;;26.33;11.88;;;;;;;;;;5021937;28;20097;-63
2022/07/31 13:22:23;;;;;;;11.60;7.70;;;;;;;;;;5025085;28;20080;-63
2022/07/31 13:24:50;;;;;;;17.13;9.60;;;;;;;;;;5018593;28;20096;-63
2022/07/31 13:27:18;;;;;;;22.52;11.00;;;;;;;;;;5023003;28;20052;-63
2022/07/31 13:29:46;;;;;;;21.83;10.68;;;;;;;;;;5019804;28;20650;-63
2022/07/31 13:32:14;;;;;;;15.40;10.20;;;;;;;;;;5024866;28;20050;-63
2022/07/31 13:34:41;;;;;;;37.47;14.90;;;;;;;;;;5004693;28;20134;-63
2022/07/31 13:37:09;;;;;;;23.63;10.43;;;;;;;;;;5024787;28;20056;-63
2022/07/31 13:39:36;;;;;;;25.33;11.75;;;;;;;;;;5022155;28;20057;-63
2022/07/31 13:42:04;;;;;;;18.67;9.93;;;;;;;;;;5023581;28;20111;-63
2022/07/31 13:44:32;;;;;;;24.08;11.77;;;;;;;;;;5015049;28;20527;-63
2022/07/31 13:46:59;;;;;;;15.93;9.55;;;;;;;;;;5023635;28;20536;-63
2022/07/31 13:49:30;;;;;;;26.63;11.43;;;;;;;;;;5023142;28;20049;-64
2022/07/31 13:51:58;;;;;;;20.08;9.90;;;;;;;;;;5012985;28;20095;-64
2022/07/31 13:54:27;;;;;;;18.00;8.27;;;;;;;;;;5020054;28;20049;-63
2022/07/31 13:56:54;;;;;;;18.02;7.93;;;;;;;;;;4998666;28;20060;-63
2022/07/31 13:59:21;;;;;;;24.95;11.80;;;;;;;;;;5021821;28;20060;-63
2022/07/31 14:01:50;;;;;;;26.40;11.98;;;;;;;;;;5023558;28;20045;-63
2022/07/31 14:04:18;;;;;;;53.67;16.48;;;;;;;;;;5022520;28;20072;-63
2022/07/31 14:06:45;;;;;;;40.60;15.45;;;;;;;;;;5003295;28;20049;-64
2022/07/31 14:09:13;;;;;;;36.13;14.95;;;;;;;;;;5019089;28;20049;-63
2022/07/31 14:11:41;;;;;;;22.75;11.35;;;;;;;;;;5024379;28;20086;-64
2022/07/31 14:14:08;;;;;;;20.75;9.05;;;;;;;;;;5020301;28;20141;-63
2022/07/31 14:16:36;;;;;;;14.27;5.68;;;;;;;;;;5022925;28;20057;-63
2022/07/31 14:19:03;;;;;;;12.93;5.80;;;;;;;;;;5018379;28;20038;-63
2022/07/31 14:21:30;;;;;;;12.68;6.43;;;;;;;;;;5000360;28;20057;-63
2022/07/31 14:23:57;;;;;;;12.07;6.40;;;;;;;;;;5023925;28;20577;-63
2022/07/31 14:26:25;;;;;;;14.82;6.97;;;;;;;;;;5015492;28;20068;-64
2022/07/31 14:28:53;;;;;;;12.20;5.90;;;;;;;;;;5017665;28;20058;-63
2022/07/31 14:31:20;;;;;;;17.15;7.80;;;;;;;;;;5021078;28;20052;-64
2022/07/31 14:33:48;;;;;;;15.95;7.57;;;;;;;;;;5019767;28;20052;-63
2022/07/31 14:36:15;;;;;;;17.90;8.95;;;;;;;;;;5018122;28;20053;-63
2022/07/31 14:38:43;;;;;;;19.38;8.93;;;;;;;;;;5008167;28;20103;-64
2022/07/31 14:41:10;;;;;;;14.88;8.30;;;;;;;;;;5025761;28;20041;-63
2022/07/31 14:43:37;;;;;;;17.58;8.10;;;;;;;;;;5021632;28;20114;-64
2022/07/31 14:46:06;;;;;;;12.40;7.50;;;;;;;;;;5021592;28;20053;-63